sensor_id;sensor_type;location;lat;lon;timestamp;P1;durP1;ratioP1;P2;durP2;ratioP2
68744;SDS011;66104;45.456;11.064;2023-05-20T00:01:10;5.10;;;3.20;;
68744;SDS011;66104;45.456;11.064;2023-05-20T00:03:50;5.70;;;4.10;;
68744;SDS011;66104;45.456;11.064;2023-05-20T00:06:29;7.40;;;4.20;;
68744;SDS011;66104;45.456;11.064;2023-05-20T00:09:08;6.60;;;4.40;;
68744;SDS011;66104;45.456;11.064;2023-05-20T00:11:47;5.70;;;3.40;;
68744;SDS011;66104;45.456;11.064;2023-05-20T00:14:28;6.20;;;4.20;;
68744;SDS011;66104;45.456;11.064;2023-05-20T00:17:09;6.60;;;4.30;;
68744;SDS011;66104;45.456;11.064;2023-05-20T00:19:50;5.00;;;3.80;;
68744;SDS011;66104;45.456;11.064;2023-05-20T00:22:30;5.70;;;4.20;;
68744;SDS011;66104;45.456;11.064;2023-05-20T00:25:11;6.30;;;3.90;;
68744;SDS011;66104;45.456;11.064;2023-05-20T00:27:53;6.60;;;4.50;;
68744;SDS011;66104;45.456;11.064;2023-05-20T00:30:33;6.90;;;3.60;;
68744;SDS011;66104;45.456;11.064;2023-05-20T00:33:14;5.50;;;4.00;;
68744;SDS011;66104;45.456;11.064;2023-05-20T00:35:53;7.60;;;3.80;;
68744;SDS011;66104;45.456;11.064;2023-05-20T00:38:35;5.00;;;3.40;;
68744;SDS011;66104;45.456;11.064;2023-05-20T00:41:17;6.00;;;3.90;;
68744;SDS011;66104;45.456;11.064;2023-05-20T00:43:58;7.80;;;3.90;;
68744;SDS011;66104;45.456;11.064;2023-05-20T00:46:39;5.70;;;3.70;;
68744;SDS011;66104;45.456;11.064;2023-05-20T00:49:19;5.80;;;3.60;;
68744;SDS011;66104;45.456;11.064;2023-05-20T00:52:00;5.00;;;3.80;;
68744;SDS011;66104;45.456;11.064;2023-05-20T00:54:39;6.70;;;3.70;;
68744;SDS011;66104;45.456;11.064;2023-05-20T00:57:21;5.50;;;4.00;;
68744;SDS011;66104;45.456;11.064;2023-05-20T01:00:04;6.10;;;4.10;;
68744;SDS011;66104;45.456;11.064;2023-05-20T01:02:45;4.80;;;3.60;;
68744;SDS011;66104;45.456;11.064;2023-05-20T01:05:25;4.80;;;3.50;;
68744;SDS011;66104;45.456;11.064;2023-05-20T01:08:06;7.40;;;3.70;;
68744;SDS011;66104;45.456;11.064;2023-05-20T01:10:52;4.00;;;3.00;;
68744;SDS011;66104;45.456;11.064;2023-05-20T01:13:42;5.30;;;3.60;;
68744;SDS011;66104;45.456;11.064;2023-05-20T01:16:28;6.00;;;3.60;;
68744;SDS011;66104;45.456;11.064;2023-05-20T01:19:20;4.60;;;3.30;;
68744;SDS011;66104;45.456;11.064;2023-05-20T01:22:05;6.70;;;3.30;;
68744;SDS011;66104;45.456;11.064;2023-05-20T01:24:47;5.20;;;3.40;;
68744;SDS011;66104;45.456;11.064;2023-05-20T01:27:30;5.70;;;3.20;;
68744;SDS011;66104;45.456;11.064;2023-05-20T01:30:14;4.70;;;3.10;;
68744;SDS011;66104;45.456;11.064;2023-05-20T01:33:00;4.90;;;2.70;;
68744;SDS011;66104;45.456;11.064;2023-05-20T01:35:43;5.10;;;3.30;;
68744;SDS011;66104;45.456;11.064;2023-05-20T01:38:24;5.20;;;4.00;;
68744;SDS011;66104;45.456;11.064;2023-05-20T01:41:06;3.90;;;2.80;;
68744;SDS011;66104;45.456;11.064;2023-05-20T01:44:00;4.20;;;3.30;;
68744;SDS011;66104;45.456;11.064;2023-05-20T01:46:41;5.60;;;3.50;;
68744;SDS011;66104;45.456;11.064;2023-05-20T01:49:28;4.70;;;3.50;;
68744;SDS011;66104;45.456;11.064;2023-05-20T01:52:08;5.30;;;3.50;;
68744;SDS011;66104;45.456;11.064;2023-05-20T01:54:49;5.20;;;3.50;;
68744;SDS011;66104;45.456;11.064;2023-05-20T01:57:30;5.70;;;3.90;;
68744;SDS011;66104;45.456;11.064;2023-05-20T02:00:15;5.30;;;4.00;;
68744;SDS011;66104;45.456;11.064;2023-05-20T02:02:57;5.70;;;4.20;;
68744;SDS011;66104;45.456;11.064;2023-05-20T02:05:40;5.80;;;4.10;;
68744;SDS011;66104;45.456;11.064;2023-05-20T02:08:21;6.00;;;4.00;;
68744;SDS011;66104;45.456;11.064;2023-05-20T02:11:03;5.90;;;3.70;;
68744;SDS011;66104;45.456;11.064;2023-05-20T02:13:43;7.50;;;4.30;;
68744;SDS011;66104;45.456;11.064;2023-05-20T02:16:22;6.70;;;3.80;;
68744;SDS011;66104;45.456;11.064;2023-05-20T02:19:03;5.50;;;3.80;;
68744;SDS011;66104;45.456;11.064;2023-05-20T02:21:46;4.60;;;3.30;;
68744;SDS011;66104;45.456;11.064;2023-05-20T02:24:27;5.20;;;4.10;;
68744;SDS011;66104;45.456;11.064;2023-05-20T02:27:11;6.90;;;4.20;;
68744;SDS011;66104;45.456;11.064;2023-05-20T02:29:51;5.50;;;3.90;;
68744;SDS011;66104;45.456;11.064;2023-05-20T02:32:33;5.00;;;3.80;;
68744;SDS011;66104;45.456;11.064;2023-05-20T02:35:14;5.70;;;4.00;;
68744;SDS011;66104;45.456;11.064;2023-05-20T02:37:55;6.40;;;4.20;;
68744;SDS011;66104;45.456;11.064;2023-05-20T02:40:34;6.40;;;3.60;;
68744;SDS011;66104;45.456;11.064;2023-05-20T02:43:15;6.70;;;4.00;;
68744;SDS011;66104;45.456;11.064;2023-05-20T02:45:55;7.30;;;4.00;;
68744;SDS011;66104;45.456;11.064;2023-05-20T02:48:36;5.20;;;3.70;;
68744;SDS011;66104;45.456;11.064;2023-05-20T02:51:15;5.20;;;3.80;;
68744;SDS011;66104;45.456;11.064;2023-05-20T02:53:55;5.40;;;3.30;;
68744;SDS011;66104;45.456;11.064;2023-05-20T02:56:37;5.40;;;3.40;;
68744;SDS011;66104;45.456;11.064;2023-05-20T02:59:16;5.00;;;3.60;;
68744;SDS011;66104;45.456;11.064;2023-05-20T03:01:55;4.80;;;3.40;;
68744;SDS011;66104;45.456;11.064;2023-05-20T03:04:35;4.70;;;3.20;;
68744;SDS011;66104;45.456;11.064;2023-05-20T03:07:16;4.80;;;3.40;;
68744;SDS011;66104;45.456;11.064;2023-05-20T03:09:54;4.20;;;3.10;;
68744;SDS011;66104;45.456;11.064;2023-05-20T03:12:34;4.60;;;3.20;;
68744;SDS011;66104;45.456;11.064;2023-05-20T03:15:15;5.90;;;3.50;;
68744;SDS011;66104;45.456;11.064;2023-05-20T03:17:56;4.40;;;2.90;;
68744;SDS011;66104;45.456;11.064;2023-05-20T03:20:36;5.20;;;3.50;;
68744;SDS011;66104;45.456;11.064;2023-05-20T03:23:16;4.60;;;3.30;;
68744;SDS011;66104;45.456;11.064;2023-05-20T03:25:56;6.60;;;3.20;;
68744;SDS011;66104;45.456;11.064;2023-05-20T03:28:37;6.00;;;3.30;;
68744;SDS011;66104;45.456;11.064;2023-05-20T03:31:16;5.20;;;2.80;;
68744;SDS011;66104;45.456;11.064;2023-05-20T03:33:54;4.90;;;3.10;;
68744;SDS011;66104;45.456;11.064;2023-05-20T03:36:32;5.80;;;3.40;;
68744;SDS011;66104;45.456;11.064;2023-05-20T03:39:10;4.20;;;2.80;;
68744;SDS011;66104;45.456;11.064;2023-05-20T03:41:49;4.90;;;3.60;;
68744;SDS011;66104;45.456;11.064;2023-05-20T03:44:29;6.90;;;3.80;;
68744;SDS011;66104;45.456;11.064;2023-05-20T03:47:09;5.40;;;3.40;;
68744;SDS011;66104;45.456;11.064;2023-05-20T03:49:49;5.20;;;3.90;;
68744;SDS011;66104;45.456;11.064;2023-05-20T03:52:29;5.10;;;3.50;;
68744;SDS011;66104;45.456;11.064;2023-05-20T03:55:12;5.00;;;3.40;;
68744;SDS011;66104;45.456;11.064;2023-05-20T03:57:52;4.40;;;3.20;;
68744;SDS011;66104;45.456;11.064;2023-05-20T04:00:31;5.10;;;3.60;;
68744;SDS011;66104;45.456;11.064;2023-05-20T04:03:10;5.80;;;3.40;;
68744;SDS011;66104;45.456;11.064;2023-05-20T04:05:50;4.80;;;3.20;;
68744;SDS011;66104;45.456;11.064;2023-05-20T04:08:28;4.80;;;3.40;;
68744;SDS011;66104;45.456;11.064;2023-05-20T04:11:11;4.00;;;3.00;;
68744;SDS011;66104;45.456;11.064;2023-05-20T04:13:51;4.90;;;3.40;;
68744;SDS011;66104;45.456;11.064;2023-05-20T04:16:30;5.70;;;3.60;;
68744;SDS011;66104;45.456;11.064;2023-05-20T04:19:08;4.80;;;3.60;;
68744;SDS011;66104;45.456;11.064;2023-05-20T04:21:49;5.40;;;3.70;;
68744;SDS011;66104;45.456;11.064;2023-05-20T04:24:31;5.20;;;3.50;;
68744;SDS011;66104;45.456;11.064;2023-05-20T04:27:10;4.80;;;3.40;;
68744;SDS011;66104;45.456;11.064;2023-05-20T04:29:50;5.10;;;3.20;;
68744;SDS011;66104;45.456;11.064;2023-05-20T04:32:30;5.40;;;3.10;;
68744;SDS011;66104;45.456;11.064;2023-05-20T04:35:12;6.60;;;3.50;;
68744;SDS011;66104;45.456;11.064;2023-05-20T04:37:53;4.40;;;2.90;;
68744;SDS011;66104;45.456;11.064;2023-05-20T04:40:33;5.50;;;3.70;;
68744;SDS011;66104;45.456;11.064;2023-05-20T04:43:13;5.30;;;3.30;;
68744;SDS011;66104;45.456;11.064;2023-05-20T04:45:53;4.90;;;3.30;;
68744;SDS011;66104;45.456;11.064;2023-05-20T04:48:38;5.20;;;3.40;;
68744;SDS011;66104;45.456;11.064;2023-05-20T04:51:19;5.70;;;4.00;;
68744;SDS011;66104;45.456;11.064;2023-05-20T04:54:01;5.50;;;3.50;;
68744;SDS011;66104;45.456;11.064;2023-05-20T04:56:40;5.30;;;3.20;;
68744;SDS011;66104;45.456;11.064;2023-05-20T04:59:20;5.20;;;3.30;;
68744;SDS011;66104;45.456;11.064;2023-05-20T05:01:59;4.80;;;3.40;;
68744;SDS011;66104;45.456;11.064;2023-05-20T05:04:40;5.90;;;4.00;;
68744;SDS011;66104;45.456;11.064;2023-05-20T05:07:20;4.60;;;3.60;;
68744;SDS011;66104;45.456;11.064;2023-05-20T05:10:01;5.50;;;3.60;;
68744;SDS011;66104;45.456;11.064;2023-05-20T05:12:42;4.90;;;3.40;;
68744;SDS011;66104;45.456;11.064;2023-05-20T05:15:21;7.50;;;3.40;;
68744;SDS011;66104;45.456;11.064;2023-05-20T05:18:01;7.50;;;3.30;;
68744;SDS011;66104;45.456;11.064;2023-05-20T05:20:44;7.20;;;3.60;;
68744;SDS011;66104;45.456;11.064;2023-05-20T05:23:24;6.00;;;3.70;;
68744;SDS011;66104;45.456;11.064;2023-05-20T05:26:05;5.50;;;3.90;;
68744;SDS011;66104;45.456;11.064;2023-05-20T05:28:45;5.90;;;4.20;;
68744;SDS011;66104;45.456;11.064;2023-05-20T05:31:26;5.50;;;3.80;;
68744;SDS011;66104;45.456;11.064;2023-05-20T05:34:05;5.20;;;3.80;;
68744;SDS011;66104;45.456;11.064;2023-05-20T05:36:45;5.40;;;3.70;;
68744;SDS011;66104;45.456;11.064;2023-05-20T05:39:25;5.90;;;3.70;;
68744;SDS011;66104;45.456;11.064;2023-05-20T05:42:03;6.10;;;3.60;;
68744;SDS011;66104;45.456;11.064;2023-05-20T05:44:42;5.50;;;3.30;;
68744;SDS011;66104;45.456;11.064;2023-05-20T05:47:21;5.50;;;3.80;;
68744;SDS011;66104;45.456;11.064;2023-05-20T05:50:04;5.00;;;3.40;;
68744;SDS011;66104;45.456;11.064;2023-05-20T05:52:44;5.40;;;3.20;;
68744;SDS011;66104;45.456;11.064;2023-05-20T05:55:25;6.30;;;3.80;;
68744;SDS011;66104;45.456;11.064;2023-05-20T05:58:03;7.90;;;4.00;;
68744;SDS011;66104;45.456;11.064;2023-05-20T06:00:41;4.60;;;3.50;;
68744;SDS011;66104;45.456;11.064;2023-05-20T06:03:21;5.20;;;3.40;;
68744;SDS011;66104;45.456;11.064;2023-05-20T06:06:02;6.20;;;3.50;;
68744;SDS011;66104;45.456;11.064;2023-05-20T06:08:42;4.50;;;3.40;;
68744;SDS011;66104;45.456;11.064;2023-05-20T06:11:20;5.70;;;3.30;;
68744;SDS011;66104;45.456;11.064;2023-05-20T06:14:00;5.50;;;3.50;;
68744;SDS011;66104;45.456;11.064;2023-05-20T06:16:40;4.80;;;3.70;;
68744;SDS011;66104;45.456;11.064;2023-05-20T06:19:18;6.70;;;3.30;;
68744;SDS011;66104;45.456;11.064;2023-05-20T06:21:58;5.20;;;3.50;;
68744;SDS011;66104;45.456;11.064;2023-05-20T06:24:38;5.30;;;3.80;;
68744;SDS011;66104;45.456;11.064;2023-05-20T06:27:17;7.10;;;4.10;;
68744;SDS011;66104;45.456;11.064;2023-05-20T06:29:58;4.30;;;2.90;;
68744;SDS011;66104;45.456;11.064;2023-05-20T06:32:36;4.10;;;3.10;;
68744;SDS011;66104;45.456;11.064;2023-05-20T06:35:15;7.00;;;3.60;;
68744;SDS011;66104;45.456;11.064;2023-05-20T06:37:53;5.70;;;3.60;;
68744;SDS011;66104;45.456;11.064;2023-05-20T06:40:32;4.80;;;3.40;;
68744;SDS011;66104;45.456;11.064;2023-05-20T06:43:10;6.80;;;3.60;;
68744;SDS011;66104;45.456;11.064;2023-05-20T06:46:11;5.40;;;3.00;;
68744;SDS011;66104;45.456;11.064;2023-05-20T06:48:56;5.10;;;3.50;;
68744;SDS011;66104;45.456;11.064;2023-05-20T06:51:34;6.10;;;3.40;;
68744;SDS011;66104;45.456;11.064;2023-05-20T06:54:11;5.50;;;3.80;;
68744;SDS011;66104;45.456;11.064;2023-05-20T06:56:49;5.30;;;3.60;;
68744;SDS011;66104;45.456;11.064;2023-05-20T06:59:29;4.80;;;3.70;;
68744;SDS011;66104;45.456;11.064;2023-05-20T07:02:09;4.80;;;3.50;;
68744;SDS011;66104;45.456;11.064;2023-05-20T07:04:47;5.00;;;3.50;;
68744;SDS011;66104;45.456;11.064;2023-05-20T07:07:25;5.30;;;3.70;;
68744;SDS011;66104;45.456;11.064;2023-05-20T07:10:06;5.10;;;3.30;;
68744;SDS011;66104;45.456;11.064;2023-05-20T07:12:46;4.70;;;3.30;;
68744;SDS011;66104;45.456;11.064;2023-05-20T07:15:25;5.20;;;3.40;;
68744;SDS011;66104;45.456;11.064;2023-05-20T07:18:03;6.10;;;3.70;;
68744;SDS011;66104;45.456;11.064;2023-05-20T07:20:41;5.30;;;3.40;;
68744;SDS011;66104;45.456;11.064;2023-05-20T07:23:33;5.10;;;3.80;;
68744;SDS011;66104;45.456;11.064;2023-05-20T07:26:11;9.50;;;4.10;;
68744;SDS011;66104;45.456;11.064;2023-05-20T07:28:49;4.90;;;3.50;;
68744;SDS011;66104;45.456;11.064;2023-05-20T07:31:26;6.60;;;3.80;;
68744;SDS011;66104;45.456;11.064;2023-05-20T07:34:04;4.50;;;3.40;;
68744;SDS011;66104;45.456;11.064;2023-05-20T07:36:41;5.00;;;3.30;;
68744;SDS011;66104;45.456;11.064;2023-05-20T07:39:19;5.90;;;3.40;;
68744;SDS011;66104;45.456;11.064;2023-05-20T07:41:57;5.50;;;3.40;;
68744;SDS011;66104;45.456;11.064;2023-05-20T07:44:35;5.90;;;3.40;;
68744;SDS011;66104;45.456;11.064;2023-05-20T07:47:11;5.20;;;3.60;;
68744;SDS011;66104;45.456;11.064;2023-05-20T07:49:50;4.90;;;3.60;;
68744;SDS011;66104;45.456;11.064;2023-05-20T07:52:28;5.20;;;3.80;;
68744;SDS011;66104;45.456;11.064;2023-05-20T07:55:26;5.00;;;3.70;;
68744;SDS011;66104;45.456;11.064;2023-05-20T07:58:04;5.20;;;3.70;;
68744;SDS011;66104;45.456;11.064;2023-05-20T08:00:42;6.00;;;4.20;;
68744;SDS011;66104;45.456;11.064;2023-05-20T08:03:21;6.30;;;3.90;;
68744;SDS011;66104;45.456;11.064;2023-05-20T08:06:03;6.40;;;4.60;;
68744;SDS011;66104;45.456;11.064;2023-05-20T08:08:40;7.00;;;5.50;;
68744;SDS011;66104;45.456;11.064;2023-05-20T08:11:22;8.10;;;5.50;;
68744;SDS011;66104;45.456;11.064;2023-05-20T08:14:01;7.70;;;5.20;;
68744;SDS011;66104;45.456;11.064;2023-05-20T08:16:43;5.90;;;4.50;;
68744;SDS011;66104;45.456;11.064;2023-05-20T08:19:25;6.00;;;4.50;;
68744;SDS011;66104;45.456;11.064;2023-05-20T08:22:02;5.50;;;3.90;;
68744;SDS011;66104;45.456;11.064;2023-05-20T08:24:40;6.20;;;4.80;;
68744;SDS011;66104;45.456;11.064;2023-05-20T08:27:19;6.40;;;4.50;;
68744;SDS011;66104;45.456;11.064;2023-05-20T08:29:58;5.70;;;3.60;;
68744;SDS011;66104;45.456;11.064;2023-05-20T08:32:37;5.30;;;4.00;;
68744;SDS011;66104;45.456;11.064;2023-05-20T08:35:15;6.80;;;4.60;;
68744;SDS011;66104;45.456;11.064;2023-05-20T08:38:02;8.40;;;5.00;;
68744;SDS011;66104;45.456;11.064;2023-05-20T08:40:40;6.40;;;4.50;;
68744;SDS011;66104;45.456;11.064;2023-05-20T08:43:20;6.30;;;4.90;;
68744;SDS011;66104;45.456;11.064;2023-05-20T08:45:57;6.70;;;4.50;;
68744;SDS011;66104;45.456;11.064;2023-05-20T08:48:36;7.50;;;4.90;;
68744;SDS011;66104;45.456;11.064;2023-05-20T08:51:15;6.80;;;5.00;;
68744;SDS011;66104;45.456;11.064;2023-05-20T08:53:55;8.00;;;5.50;;
68744;SDS011;66104;45.456;11.064;2023-05-20T08:56:35;7.60;;;5.60;;
68744;SDS011;66104;45.456;11.064;2023-05-20T08:59:15;7.00;;;5.10;;
68744;SDS011;66104;45.456;11.064;2023-05-20T09:01:53;6.60;;;5.00;;
68744;SDS011;66104;45.456;11.064;2023-05-20T09:04:33;6.80;;;4.90;;
68744;SDS011;66104;45.456;11.064;2023-05-20T09:07:12;8.10;;;5.30;;
68744;SDS011;66104;45.456;11.064;2023-05-20T09:09:58;9.50;;;5.10;;
68744;SDS011;66104;45.456;11.064;2023-05-20T09:12:37;8.20;;;5.60;;
68744;SDS011;66104;45.456;11.064;2023-05-20T09:15:15;8.00;;;6.00;;
68744;SDS011;66104;45.456;11.064;2023-05-20T09:17:53;8.60;;;5.80;;
68744;SDS011;66104;45.456;11.064;2023-05-20T09:20:33;8.50;;;5.90;;
68744;SDS011;66104;45.456;11.064;2023-05-20T09:23:11;7.80;;;5.70;;
68744;SDS011;66104;45.456;11.064;2023-05-20T09:25:51;8.70;;;5.50;;
68744;SDS011;66104;45.456;11.064;2023-05-20T09:28:29;10.10;;;7.00;;
68744;SDS011;66104;45.456;11.064;2023-05-20T09:31:09;8.90;;;6.20;;
68744;SDS011;66104;45.456;11.064;2023-05-20T09:33:50;7.90;;;5.70;;
68744;SDS011;66104;45.456;11.064;2023-05-20T09:36:30;8.30;;;6.40;;
68744;SDS011;66104;45.456;11.064;2023-05-20T09:39:16;7.90;;;6.30;;
68744;SDS011;66104;45.456;11.064;2023-05-20T09:42:11;6.40;;;5.10;;
68744;SDS011;66104;45.456;11.064;2023-05-20T09:44:58;7.70;;;5.60;;
68744;SDS011;66104;45.456;11.064;2023-05-20T09:47:39;8.90;;;6.90;;
68744;SDS011;66104;45.456;11.064;2023-05-20T09:50:18;7.60;;;5.30;;
68744;SDS011;66104;45.456;11.064;2023-05-20T09:52:56;9.30;;;6.70;;
68744;SDS011;66104;45.456;11.064;2023-05-20T09:55:37;8.70;;;6.80;;
68744;SDS011;66104;45.456;11.064;2023-05-20T09:58:17;10.10;;;7.40;;
68744;SDS011;66104;45.456;11.064;2023-05-20T10:00:56;10.60;;;7.00;;
68744;SDS011;66104;45.456;11.064;2023-05-20T10:03:33;11.20;;;7.60;;
68744;SDS011;66104;45.456;11.064;2023-05-20T10:06:31;9.30;;;6.30;;
68744;SDS011;66104;45.456;11.064;2023-05-20T10:12:37;7.20;;;6.40;;
68744;SDS011;66104;45.456;11.064;2023-05-20T10:15:28;8.50;;;6.90;;
68744;SDS011;66104;45.456;11.064;2023-05-20T10:18:33;8.50;;;6.50;;
68744;SDS011;66104;45.456;11.064;2023-05-20T10:21:22;8.20;;;6.30;;
68744;SDS011;66104;45.456;11.064;2023-05-20T10:24:07;7.90;;;6.20;;
68744;SDS011;66104;45.456;11.064;2023-05-20T10:26:44;10.80;;;7.40;;
68744;SDS011;66104;45.456;11.064;2023-05-20T10:29:31;9.20;;;7.10;;
68744;SDS011;66104;45.456;11.064;2023-05-20T10:32:27;9.70;;;6.70;;
68744;SDS011;66104;45.456;11.064;2023-05-20T10:35:09;9.10;;;7.50;;
68744;SDS011;66104;45.456;11.064;2023-05-20T10:37:47;9.40;;;7.60;;
68744;SDS011;66104;45.456;11.064;2023-05-20T10:40:26;10.20;;;7.60;;
68744;SDS011;66104;45.456;11.064;2023-05-20T10:43:12;12.30;;;8.40;;
68744;SDS011;66104;45.456;11.064;2023-05-20T10:45:55;10.80;;;7.30;;
68744;SDS011;66104;45.456;11.064;2023-05-20T10:48:43;9.50;;;6.80;;
68744;SDS011;66104;45.456;11.064;2023-05-20T10:51:21;11.50;;;8.80;;
68744;SDS011;66104;45.456;11.064;2023-05-20T10:54:03;10.40;;;8.10;;
68744;SDS011;66104;45.456;11.064;2023-05-20T10:56:52;15.50;;;9.50;;
68744;SDS011;66104;45.456;11.064;2023-05-20T10:59:29;10.90;;;8.30;;
68744;SDS011;66104;45.456;11.064;2023-05-20T11:02:10;12.10;;;9.10;;
68744;SDS011;66104;45.456;11.064;2023-05-20T11:04:49;11.60;;;8.60;;
68744;SDS011;66104;45.456;11.064;2023-05-20T11:07:31;11.30;;;8.80;;
68744;SDS011;66104;45.456;11.064;2023-05-20T11:10:12;9.90;;;8.00;;
68744;SDS011;66104;45.456;11.064;2023-05-20T11:12:50;11.20;;;8.10;;
68744;SDS011;66104;45.456;11.064;2023-05-20T11:15:30;11.70;;;8.20;;
68744;SDS011;66104;45.456;11.064;2023-05-20T11:18:09;11.50;;;8.70;;
68744;SDS011;66104;45.456;11.064;2023-05-20T11:20:50;11.40;;;8.90;;
68744;SDS011;66104;45.456;11.064;2023-05-20T11:23:28;13.20;;;9.00;;
68744;SDS011;66104;45.456;11.064;2023-05-20T11:26:05;10.50;;;7.90;;
68744;SDS011;66104;45.456;11.064;2023-05-20T11:28:43;11.20;;;8.60;;
68744;SDS011;66104;45.456;11.064;2023-05-20T11:31:22;12.00;;;8.70;;
68744;SDS011;66104;45.456;11.064;2023-05-20T11:34:00;13.20;;;8.90;;
68744;SDS011;66104;45.456;11.064;2023-05-20T11:36:42;12.00;;;8.70;;
68744;SDS011;66104;45.456;11.064;2023-05-20T11:39:22;11.30;;;8.70;;
68744;SDS011;66104;45.456;11.064;2023-05-20T11:42:02;12.60;;;8.50;;
68744;SDS011;66104;45.456;11.064;2023-05-20T11:44:46;12.60;;;9.20;;
68744;SDS011;66104;45.456;11.064;2023-05-20T11:47:27;13.10;;;9.30;;
68744;SDS011;66104;45.456;11.064;2023-05-20T11:50:07;13.00;;;8.50;;
68744;SDS011;66104;45.456;11.064;2023-05-20T11:52:58;9.10;;;7.60;;
68744;SDS011;66104;45.456;11.064;2023-05-20T11:55:43;12.30;;;8.80;;
68744;SDS011;66104;45.456;11.064;2023-05-20T11:58:23;14.70;;;8.10;;
68744;SDS011;66104;45.456;11.064;2023-05-20T12:01:03;11.40;;;8.80;;
68744;SDS011;66104;45.456;11.064;2023-05-20T12:03:53;11.30;;;8.20;;
68744;SDS011;66104;45.456;11.064;2023-05-20T12:06:31;13.40;;;9.10;;
68744;SDS011;66104;45.456;11.064;2023-05-20T12:09:07;12.80;;;9.80;;
68744;SDS011;66104;45.456;11.064;2023-05-20T12:11:44;14.20;;;10.20;;
68744;SDS011;66104;45.456;11.064;2023-05-20T12:14:21;11.60;;;9.50;;
68744;SDS011;66104;45.456;11.064;2023-05-20T12:16:59;10.50;;;8.60;;
68744;SDS011;66104;45.456;11.064;2023-05-20T12:19:36;11.70;;;8.70;;
68744;SDS011;66104;45.456;11.064;2023-05-20T12:22:14;13.70;;;9.40;;
68744;SDS011;66104;45.456;11.064;2023-05-20T12:24:50;11.90;;;8.50;;
68744;SDS011;66104;45.456;11.064;2023-05-20T12:27:28;10.80;;;8.40;;
68744;SDS011;66104;45.456;11.064;2023-05-20T12:30:08;14.80;;;10.10;;
68744;SDS011;66104;45.456;11.064;2023-05-20T12:32:48;10.80;;;8.70;;
68744;SDS011;66104;45.456;11.064;2023-05-20T12:35:35;15.60;;;9.40;;
68744;SDS011;66104;45.456;11.064;2023-05-20T12:38:12;12.20;;;8.10;;
68744;SDS011;66104;45.456;11.064;2023-05-20T12:40:49;12.80;;;9.00;;
68744;SDS011;66104;45.456;11.064;2023-05-20T12:43:27;11.60;;;8.20;;
68744;SDS011;66104;45.456;11.064;2023-05-20T12:46:07;11.20;;;8.80;;
68744;SDS011;66104;45.456;11.064;2023-05-20T12:48:44;11.40;;;9.10;;
68744;SDS011;66104;45.456;11.064;2023-05-20T12:51:22;14.60;;;9.20;;
68744;SDS011;66104;45.456;11.064;2023-05-20T12:53:59;11.80;;;9.00;;
68744;SDS011;66104;45.456;11.064;2023-05-20T12:56:39;11.10;;;8.90;;
68744;SDS011;66104;45.456;11.064;2023-05-20T12:59:19;12.00;;;8.00;;
68744;SDS011;66104;45.456;11.064;2023-05-20T13:01:58;13.10;;;8.90;;
68744;SDS011;66104;45.456;11.064;2023-05-20T13:04:37;10.70;;;8.30;;
68744;SDS011;66104;45.456;11.064;2023-05-20T13:07:15;10.90;;;8.00;;
68744;SDS011;66104;45.456;11.064;2023-05-20T13:09:52;11.30;;;9.00;;
68744;SDS011;66104;45.456;11.064;2023-05-20T13:12:30;11.60;;;8.00;;
68744;SDS011;66104;45.456;11.064;2023-05-20T13:15:12;12.20;;;9.50;;
68744;SDS011;66104;45.456;11.064;2023-05-20T13:17:50;12.20;;;8.10;;
68744;SDS011;66104;45.456;11.064;2023-05-20T13:20:27;10.60;;;8.50;;
68744;SDS011;66104;45.456;11.064;2023-05-20T13:23:05;10.30;;;8.60;;
68744;SDS011;66104;45.456;11.064;2023-05-20T13:25:42;10.60;;;8.70;;
68744;SDS011;66104;45.456;11.064;2023-05-20T13:28:19;11.50;;;9.10;;
68744;SDS011;66104;45.456;11.064;2023-05-20T13:30:58;12.70;;;9.20;;
68744;SDS011;66104;45.456;11.064;2023-05-20T13:33:37;14.20;;;9.90;;
68744;SDS011;66104;45.456;11.064;2023-05-20T13:36:15;11.90;;;9.40;;
68744;SDS011;66104;45.456;11.064;2023-05-20T13:38:53;13.10;;;10.70;;
68744;SDS011;66104;45.456;11.064;2023-05-20T13:41:32;12.20;;;8.40;;
68744;SDS011;66104;45.456;11.064;2023-05-20T13:44:09;13.70;;;10.40;;
68744;SDS011;66104;45.456;11.064;2023-05-20T13:46:48;13.50;;;9.60;;
68744;SDS011;66104;45.456;11.064;2023-05-20T13:49:25;13.90;;;9.80;;
68744;SDS011;66104;45.456;11.064;2023-05-20T13:52:06;11.60;;;8.60;;
68744;SDS011;66104;45.456;11.064;2023-05-20T13:54:46;12.90;;;10.60;;
68744;SDS011;66104;45.456;11.064;2023-05-20T13:57:23;11.70;;;9.90;;
68744;SDS011;66104;45.456;11.064;2023-05-20T14:00:02;12.00;;;10.00;;
68744;SDS011;66104;45.456;11.064;2023-05-20T14:02:41;12.10;;;8.40;;
68744;SDS011;66104;45.456;11.064;2023-05-20T14:05:17;13.20;;;10.40;;
68744;SDS011;66104;45.456;11.064;2023-05-20T14:07:55;13.30;;;9.60;;
68744;SDS011;66104;45.456;11.064;2023-05-20T14:10:32;12.10;;;9.40;;
68744;SDS011;66104;45.456;11.064;2023-05-20T14:13:10;12.10;;;9.40;;
68744;SDS011;66104;45.456;11.064;2023-05-20T14:15:47;12.00;;;9.30;;
68744;SDS011;66104;45.456;11.064;2023-05-20T14:18:25;13.90;;;10.00;;
68744;SDS011;66104;45.456;11.064;2023-05-20T14:21:02;11.40;;;8.40;;
68744;SDS011;66104;45.456;11.064;2023-05-20T14:23:40;16.40;;;11.80;;
68744;SDS011;66104;45.456;11.064;2023-05-20T14:26:17;13.50;;;10.80;;
68744;SDS011;66104;45.456;11.064;2023-05-20T14:28:54;12.40;;;8.60;;
68744;SDS011;66104;45.456;11.064;2023-05-20T14:31:31;15.50;;;11.20;;
68744;SDS011;66104;45.456;11.064;2023-05-20T14:34:09;15.10;;;11.80;;
68744;SDS011;66104;45.456;11.064;2023-05-20T14:36:44;14.80;;;11.60;;
68744;SDS011;66104;45.456;11.064;2023-05-20T14:39:21;17.60;;;11.90;;
68744;SDS011;66104;45.456;11.064;2023-05-20T14:41:59;14.00;;;10.30;;
68744;SDS011;66104;45.456;11.064;2023-05-20T14:44:36;17.40;;;12.50;;
68744;SDS011;66104;45.456;11.064;2023-05-20T14:47:14;13.30;;;9.40;;
68744;SDS011;66104;45.456;11.064;2023-05-20T14:49:53;14.10;;;10.20;;
68744;SDS011;66104;45.456;11.064;2023-05-20T14:52:31;14.60;;;10.70;;
68744;SDS011;66104;45.456;11.064;2023-05-20T14:55:09;15.50;;;10.50;;
68744;SDS011;66104;45.456;11.064;2023-05-20T14:57:48;12.50;;;10.70;;
68744;SDS011;66104;45.456;11.064;2023-05-20T15:00:26;12.90;;;10.20;;
68744;SDS011;66104;45.456;11.064;2023-05-20T15:03:04;12.30;;;9.60;;
68744;SDS011;66104;45.456;11.064;2023-05-20T15:05:41;12.90;;;9.90;;
68744;SDS011;66104;45.456;11.064;2023-05-20T15:08:19;16.10;;;11.20;;
68744;SDS011;66104;45.456;11.064;2023-05-20T15:10:57;12.80;;;9.30;;
68744;SDS011;66104;45.456;11.064;2023-05-20T15:13:34;15.90;;;10.00;;
68744;SDS011;66104;45.456;11.064;2023-05-20T15:16:11;15.40;;;10.40;;
68744;SDS011;66104;45.456;11.064;2023-05-20T15:18:49;13.40;;;10.10;;
68744;SDS011;66104;45.456;11.064;2023-05-20T15:21:26;15.50;;;12.20;;
68744;SDS011;66104;45.456;11.064;2023-05-20T15:24:08;16.40;;;11.60;;
68744;SDS011;66104;45.456;11.064;2023-05-20T15:26:47;14.50;;;10.90;;
68744;SDS011;66104;45.456;11.064;2023-05-20T15:29:25;13.80;;;9.80;;
68744;SDS011;66104;45.456;11.064;2023-05-20T15:32:03;13.90;;;10.40;;
68744;SDS011;66104;45.456;11.064;2023-05-20T15:34:41;13.60;;;9.70;;
68744;SDS011;66104;45.456;11.064;2023-05-20T15:37:18;13.70;;;10.60;;
68744;SDS011;66104;45.456;11.064;2023-05-20T15:39:54;13.40;;;10.50;;
68744;SDS011;66104;45.456;11.064;2023-05-20T15:42:31;12.90;;;10.20;;
68744;SDS011;66104;45.456;11.064;2023-05-20T15:45:11;11.20;;;8.20;;
68744;SDS011;66104;45.456;11.064;2023-05-20T15:47:48;12.40;;;9.90;;